PAFR METAR and TAF weather

Enter ICAO airport designator
Station Type Date Time Source
PAFR METAR 2019/02/20 17:58 UTC NOAA

PAFR 201758Z AUTO 00000KT 9SM OVC100 M10/M12 A3007 RMK AO2 SLP196 60000 T11051116 11103 21167 57008


Station Type Date Time Source
PAFR Decoded METAR 2019/02/20 17:58 UTC NOAA

Ft. Richardson / Bryant U. S. Army Heliport, Ak, AK, United States (PAFR) 61-16N 149-39W 115M
Feb 20, 2019 - 12:58 PM EST / 2019.02.20 1758 UTC
Wind: Calm:0
Visibility: 9 mile(s):0
Sky conditions: overcast
Temperature: 13.1 F (-10.5 C)
Dew Point: 11.1 F (-11.6 C)
Relative Humidity: 91%
Pressure (altimeter): 30.07 in. Hg (1018 hPa)
Pressure tendency: 0.02 inches (0.8 hPa) lower than three hours ago
ob: PAFR 201758Z AUTO 00000KT 9SM OVC100 M10/M12 A3007 RMK AO2 SLP196 60000 T11051116 11103 21167 57008
cycle: 18

Station Type Date Time Source
PAFR TAF UTC NOAA

Error!


Example: see airport list